Terminal Aerodrome Forecast
Issued by NWS Bismarck, ND

Home | Current Version | Previous Version | Text Only | Print | Product List | Glossary Off
Versions: 1 2 3 4 5 6 7 8 9 10 11 12 13 14 15 16 17 18 19 20 21 22 23 24

000
FTUS43 KBIS 302100 AAA
TAFBIS
TAF AMD
KBIS 302138Z 3022/0118 09016KT P6SM -SHRA VCTS BKN008 OVC035CB
     FM010200 12012KT P6SM BKN015 OVC080
     FM010600 24011KT P6SM OVC012
     FM011400 27013G20KT P6SM OVC018=

USA.gov is the U.S. government's official web portal to all federal, state and local government web resources and services.